createdAt,value
2023-01-10T00:01:53.313Z,60
2023-01-10T00:11:53.270Z,81
2023-01-10T00:21:53.125Z,90
2023-01-10T00:31:53.059Z,97
2023-01-10T00:41:52.992Z,74
2023-01-10T00:51:52.945Z,76
2023-01-10T01:01:53.041Z,99
2023-01-10T01:11:52.828Z,44
2023-01-10T01:21:52.700Z,44
2023-01-10T01:31:52.634Z,57
2023-01-10T01:41:52.600Z,75
2023-01-10T01:51:52.610Z,83
2023-01-10T02:01:52.509Z,43
2023-01-10T02:11:52.382Z,19
2023-01-10T02:21:52.290Z,16
2023-01-10T02:31:52.228Z,7
2023-01-10T02:41:52.157Z,3
2023-01-10T02:51:52.086Z,24
2023-01-10T03:01:52.025Z,5
2023-01-10T03:11:51.935Z,4
2023-01-10T03:21:51.874Z,5
2023-01-10T03:31:51.805Z,3
2023-01-10T03:41:51.715Z,18
2023-01-10T03:51:51.684Z,7
2023-01-10T04:01:51.669Z,28
2023-01-10T04:11:51.509Z,13
2023-01-10T04:21:51.427Z,31
2023-01-10T04:31:51.453Z,6
2023-01-10T04:41:51.320Z,19
2023-01-10T04:51:51.234Z,20
2023-01-10T05:01:51.271Z,13
2023-01-10T05:11:51.096Z,15
2023-01-10T05:21:50.983Z,16
2023-01-10T05:31:50.985Z,18
2023-01-10T05:41:50.878Z,25
2023-01-10T05:51:50.877Z,20
2023-01-10T06:01:50.758Z,43
2023-01-10T06:11:50.635Z,52
2023-01-10T06:21:50.683Z,35
2023-01-10T06:31:50.530Z,50
2023-01-10T06:41:50.445Z,43
2023-01-10T06:51:50.351Z,45
2023-01-10T07:01:50.383Z,70
2023-01-10T07:11:50.237Z,77
2023-01-10T07:21:50.155Z,99
2023-01-10T07:31:50.107Z,99
2023-01-10T07:41:49.985Z,97
2023-01-10T07:51:49.943Z,99
2023-01-10T08:01:49.853Z,99
2023-01-10T08:11:49.795Z,99
2023-01-10T08:21:49.764Z,99
2023-01-10T08:31:49.672Z,99
2023-01-10T08:41:49.645Z,99
2023-01-10T08:51:49.534Z,99
2023-01-10T09:01:49.529Z,99
2023-01-10T09:11:49.359Z,99
2023-01-10T09:21:49.295Z,99
2023-01-10T09:31:49.265Z,99
2023-01-10T09:41:49.144Z,99
2023-01-10T09:51:49.118Z,99
2023-01-10T10:01:49.236Z,99
2023-01-10T10:11:49.155Z,99
2023-01-10T10:31:49.131Z,99
2023-01-10T10:41:48.732Z,1
2023-01-10T10:51:48.689Z,1
2023-01-10T11:01:48.839Z,1
2023-01-10T11:11:48.504Z,1
2023-01-10T11:21:48.456Z,1
2023-01-10T11:31:48.447Z,1
2023-01-10T11:41:48.329Z,1
2023-01-10T11:51:48.226Z,1
2023-01-10T12:01:48.253Z,1
2023-01-10T12:11:48.090Z,1
2023-01-10T12:21:48.028Z,1
2023-01-10T12:31:47.954Z,1
2023-01-10T12:41:48.044Z,1
2023-01-10T12:51:47.850Z,1
2023-01-10T13:01:47.911Z,1
2023-01-10T13:11:47.663Z,1
2023-01-10T13:21:47.608Z,1
2023-01-10T13:31:49.631Z,99
2023-01-10T13:41:47.482Z,99
2023-01-10T13:51:47.386Z,99
2023-01-10T14:01:47.462Z,99
2023-01-10T14:11:47.256Z,99
2023-01-10T14:21:47.536Z,99
2023-01-10T14:31:47.258Z,99
2023-01-10T14:41:47.073Z,99
2023-01-10T14:51:46.998Z,99
2023-01-10T15:01:47.040Z,99
2023-01-10T15:11:46.956Z,99
2023-01-10T15:21:47.096Z,1
2023-01-10T15:31:46.802Z,1
2023-01-10T15:41:46.658Z,1
2023-01-10T15:51:46.545Z,1
2023-01-10T16:01:46.709Z,1
2023-01-10T16:11:46.417Z,1
2023-01-10T16:21:46.403Z,1
2023-01-10T16:31:46.331Z,1
2023-01-10T16:41:46.203Z,1
2023-01-10T16:51:46.171Z,1
2023-01-10T17:01:46.392Z,1
2023-01-10T17:11:46.020Z,1
2023-01-10T17:21:45.935Z,1
2023-01-10T17:31:45.966Z,1
2023-01-10T17:41:45.965Z,1
2023-01-10T17:51:45.711Z,1
2023-01-10T18:01:45.844Z,1
2023-01-10T18:11:45.588Z,1
2023-01-10T18:21:45.487Z,1
2023-01-10T18:31:45.468Z,1
2023-01-10T18:41:45.398Z,1
2023-01-10T18:51:45.285Z,1
2023-01-10T19:01:45.227Z,1
2023-01-10T19:11:45.163Z,1
2023-01-10T19:21:45.089Z,1
2023-01-10T19:31:45.193Z,1
2023-01-10T19:41:45.063Z,1
2023-01-10T19:51:44.862Z,1
2023-01-10T20:01:44.949Z,1
2023-01-10T20:11:44.831Z,1
2023-01-10T20:21:44.649Z,1
2023-01-10T20:31:44.588Z,1
2023-01-10T20:41:44.534Z,99
2023-01-10T20:51:44.466Z,99
2023-01-10T21:01:44.517Z,99
2023-01-10T21:11:57.894Z,1
2023-01-10T21:21:44.277Z,1
2023-01-10T21:31:44.206Z,99
2023-01-10T21:41:44.081Z,99
2023-01-10T21:51:44.010Z,99
2023-01-10T22:01:43.964Z,99
2023-01-10T22:11:43.888Z,99
2023-01-10T22:21:43.804Z,99
2023-01-10T22:31:43.897Z,99
2023-01-10T22:41:43.766Z,99
2023-01-10T22:51:43.612Z,93
2023-01-10T23:01:43.533Z,85
2023-01-10T23:11:43.444Z,72
2023-01-10T23:21:43.400Z,76
2023-01-10T23:31:43.394Z,56
2023-01-10T23:41:43.238Z,67
2023-01-10T23:51:43.193Z,73
